Terminal Aerodrome Forecast
Issued by NWS

Home | Current Version | Previous Version | Graphics & Text | Print | Product List | Glossary On
Versions: 1 2 3 4 5 6 7 8 9 10 11 12 13 14 15 16 17 18
757
FTUS43 KBIS 260351 AAA
TAFMOT
TAF AMD
KMOT 260351Z 2604/2624 03009KT P6SM OVC040
     FM261300 36011KT P6SM BKN025
     FM261800 02013KT P6SM SCT035=

USA.gov is the U.S. government's official web portal to all federal, state and local government web resources and services.